Kishinev, Moldova
Current Conditions -  °F | °C
As of 3:00 PM on Thursday 27 Nov 2014 (Local Time) from LUKK Reporting Station
Broken Clouds Broken Clouds  
Wind Chill: 26°   Ceiling: 1500
Heat Index: 32°   Visibility: 6mi
Dew Point: 23°   Wind: 6mph
Humidity: 69%   Direction: 30°NNE
Pressure: 30.27"   Gusts: NA
Location:  47.02°N, 28.87°E
Report Text: LUKK 271200Z 03005KT 330V050 9999 BKN015 BKN046M00/M05 Q1025 R26/CLRD65 NOSIG
Loading
Personal Weather Stations






























Interactive Weather Map New forecast layout! Learn more

10-Day Weather Forecast

Advertisements
Track Severe Weather on mobile